Time;durP1;ratioP1;P1;durP2;ratioP2;P2;SDS_P1;SDS_P2;PMS_P1;PMS_P2;Temp;Humidity;BMP_temperature;BMP_pressure;BME280_temperature;BME280_humidity;BME280_pressure;Samples;Min_cycle;Max_cycle;Signal;HPM_P1;HPM_P2
2022/09/08 00:02:25;;;;;;;2.42;1.88;;;;;;;-145.69;100.00;70713.97;5075398;28;20682;-76
2022/09/08 00:04:52;;;;;;;3.08;1.70;;;;;;;-145.69;100.00;70717.94;5075601;28;20199;-76
2022/09/08 00:07:19;;;;;;;2.75;1.73;;;;;;;-145.69;100.00;70727.88;5068507;28;20223;-77
2022/09/08 00:09:45;;;;;;;2.42;1.67;;;;;;;-145.69;100.00;70721.91;5055376;28;20241;-77
2022/09/08 00:12:15;;;;;;;3.47;1.52;;;;;;;-145.69;100.00;70717.94;5055297;28;20195;-76
2022/09/08 00:14:41;;;;;;;3.70;1.73;;;;;;;-145.69;100.00;70717.94;5055212;28;20605;-77
2022/09/08 00:17:08;;;;;;;2.10;1.63;;;;;;;-145.69;100.00;70709.97;5057888;28;20566;-77
2022/09/08 00:19:34;;;;;;;1.50;1.40;;;;;;;-145.69;100.00;70709.97;5075284;28;20350;-76
2022/09/08 00:22:01;;;;;;;3.60;1.67;;;;;;;-145.69;100.00;70721.91;5075319;28;20222;-77
2022/09/08 00:24:27;;;;;;;2.45;1.45;;;;;;;-145.69;100.00;70719.94;5075180;28;20210;-76
2022/09/08 00:26:53;;;;;;;3.83;1.73;;;;;;;-145.69;100.00;70725.91;5074897;28;20260;-77
2022/09/08 00:29:21;;;;;;;3.42;1.70;;;;;;;-145.69;100.00;70715.94;5075086;28;20653;-76
2022/09/08 00:31:48;;;;;;;1.63;1.48;;;;;;;-145.69;100.00;70725.91;5075086;28;20264;-77
2022/09/08 00:34:14;;;;;;;2.20;1.13;;;;;;;-145.69;100.00;70729.88;5074236;28;20465;-76
2022/09/08 00:36:41;;;;;;;2.97;1.13;;;;;;;-145.69;100.00;70717.94;5074579;28;20252;-76
2022/09/08 00:39:08;;;;;;;1.88;1.00;;;;;;;-145.69;100.00;70713.97;5075081;28;20297;-76
2022/09/08 00:41:35;;;;;;;1.38;0.88;;;;;;;-145.69;100.00;70709.97;5074797;28;20213;-77
2022/09/08 00:44:37;;;;;;;1.15;0.90;;;;;;;-145.69;100.00;70717.94;5074869;28;20236;-76
2022/09/08 00:47:05;;;;;;;2.40;1.23;;;;;;;-145.69;100.00;70737.84;5074568;28;20688;-76
2022/09/08 00:49:33;;;;;;;2.22;1.20;;;;;;;-145.69;100.00;70741.81;5074615;28;20234;-75
2022/09/08 00:52:00;;;;;;;1.42;1.20;;;;;;;-145.69;100.00;70753.75;5074500;28;20252;-76
2022/09/08 00:54:27;;;;;;;3.45;1.02;;;;;;;-145.69;100.00;70737.84;5074693;28;20252;-75
2022/09/08 00:56:55;;;;;;;1.10;1.00;;;;;;;-145.69;100.00;70731.88;5074514;28;20203;-76
2022/09/08 00:59:24;;;;;;;2.15;1.10;;;;;;;-145.69;100.00;70727.88;5074235;28;20207;-75
2022/09/08 01:01:53;;;;;;;3.28;1.08;;;;;;;-145.69;100.00;70723.91;5072395;28;20291;-74
2022/09/08 01:04:20;;;;;;;2.72;1.08;;;;;;;-145.69;100.00;70717.94;5074271;28;20707;-76
2022/09/08 01:12:44;;;;;;;1.77;0.80;;;;;;;-145.69;100.00;70709.97;5060864;28;20257;-76
2022/09/08 01:15:12;;;;;;;1.65;0.80;;;;;;;-145.69;100.00;70709.97;5054038;28;20669;-75
2022/09/08 01:17:40;;;;;;;1.30;0.90;;;;;;;-145.69;100.00;70717.94;5053978;28;20654;-75
2022/09/08 01:20:08;;;;;;;4.97;1.63;;;;;;;-145.69;100.00;70735.84;5054075;28;20203;-75
2022/09/08 01:23:13;;;;;;;3.72;1.00;;;;;;;-145.69;100.00;70735.84;5070931;28;20205;-75
2022/09/08 01:26:06;;;;;;;1.40;0.90;;;;;;;-145.69;100.00;70733.84;5069964;28;20244;-75
2022/09/08 01:28:36;;;;;;;1.60;0.80;;;;;;;-145.69;100.00;70745.78;5073902;28;20199;-75
2022/09/08 01:31:05;;;;;;;1.52;0.80;;;;;;;-145.69;100.00;70759.72;5073822;28;20718;-75
2022/09/08 01:33:32;;;;;;;1.00;0.93;;;;;;;-145.69;100.00;70769.66;5073614;28;20205;-75
2022/09/08 01:35:59;;;;;;;1.90;1.10;;;;;;;-145.69;100.00;70773.66;5073682;28;20199;-76
2022/09/08 01:38:25;;;;;;;5.97;1.20;;;;;;;-145.69;100.00;70779.63;5073790;28;20203;-75
2022/09/08 01:40:51;;;;;;;2.83;1.10;;;;;;;-145.69;100.00;70785.59;5073383;28;20195;-76
2022/09/08 01:43:18;;;;;;;1.50;1.20;;;;;;;-145.69;100.00;70779.63;5073688;28;20199;-75
2022/09/08 01:45:46;;;;;;;1.25;1.10;;;;;;;-145.69;100.00;70777.63;5073055;28;20199;-76
2022/09/08 01:48:12;;;;;;;1.80;0.88;;;;;;;-145.69;100.00;70769.66;5073376;28;20229;-75
2022/09/08 01:50:38;;;;;;;1.77;0.88;;;;;;;-145.69;100.00;70765.69;5072805;28;20703;-76
2022/09/08 01:53:05;;;;;;;3.05;1.00;;;;;;;-145.69;100.00;70757.72;5072733;28;20204;-75
2022/09/08 01:55:32;;;;;;;1.85;0.80;;;;;;;-145.69;100.00;70753.75;5072689;28;20198;-75
2022/09/08 01:57:58;;;;;;;2.03;0.93;;;;;;;-145.69;100.00;70745.78;5072866;28;20252;-76
2022/09/08 02:00:24;;;;;;;2.30;0.90;;;;;;;-145.69;100.00;70729.88;5072614;28;20217;-78
2022/09/08 02:02:52;;;;;;;2.85;0.98;;;;;;;-145.69;100.00;70729.88;5072637;28;20657;-75
2022/09/08 02:05:19;;;;;;;3.15;1.08;;;;;;;-145.69;100.00;70733.84;5072486;28;20194;-76
2022/09/08 02:07:45;;;;;;;1.58;0.90;;;;;;;-145.69;100.00;70735.84;5072532;28;20256;-77
2022/09/08 02:10:11;;;;;;;3.05;1.00;;;;;;;-145.69;100.00;70729.88;5067281;28;20191;-76
2022/09/08 02:12:38;;;;;;;2.33;0.90;;;;;;;-145.69;100.00;70737.84;5052459;28;20269;-78
2022/09/08 02:15:06;;;;;;;1.50;0.90;;;;;;;-145.69;100.00;70733.84;5052346;28;20203;-76
2022/09/08 02:17:33;;;;;;;0.88;0.75;;;;;;;-145.69;100.00;70743.81;5052305;28;20207;-76
2022/09/08 02:20:01;;;;;;;4.78;1.20;;;;;;;-145.69;100.00;70737.84;5052598;28;20203;-75
2022/09/08 02:22:27;;;;;;;1.83;1.10;;;;;;;-145.69;100.00;70749.78;5052608;28;20203;-76
2022/09/08 02:24:53;;;;;;;1.70;1.00;;;;;;;-145.69;100.00;70751.75;5052427;28;20539;-77
2022/09/08 02:27:20;;;;;;;1.65;1.00;;;;;;;-145.69;100.00;70769.66;5052086;28;20223;-77
2022/09/08 02:29:46;;;;;;;3.00;1.10;;;;;;;-145.69;100.00;70761.72;5051178;28;20287;-76
2022/09/08 02:32:13;;;;;;;2.85;1.10;;;;;;;-145.69;100.00;70767.69;5050819;28;20216;-76
2022/09/08 02:34:39;;;;;;;2.05;1.13;;;;;;;-145.69;100.00;70761.72;5054969;28;20273;-78
2022/09/08 02:37:07;;;;;;;2.23;1.00;;;;;;;-145.69;100.00;70759.72;5069766;28;20966;-76
2022/09/08 02:39:34;;;;;;;1.17;1.00;;;;;;;-145.69;100.00;70769.66;5072016;28;20468;-76
2022/09/08 02:42:00;;;;;;;2.45;1.10;;;;;;;-145.69;100.00;70743.81;5072013;28;20207;-76
2022/09/08 02:44:27;;;;;;;2.25;1.00;;;;;;;-145.69;100.00;70753.75;5071670;28;20199;-76
2022/09/08 02:46:53;;;;;;;1.85;1.10;;;;;;;-145.69;100.00;70761.72;5072007;28;20321;-77
2022/09/08 02:49:20;;;;;;;0.70;0.70;;;;;;;-145.69;100.00;70757.72;5035779;28;1030741;-78
2022/09/08 02:51:47;;;;;;;2.33;0.95;;;;;;;-145.69;100.00;70769.66;5072780;28;20248;-77
2022/09/08 02:54:15;;;;;;;0.77;0.77;;;;;;;-145.69;100.00;70765.69;5072826;28;20557;-77
2022/09/08 02:56:41;;;;;;;0.85;0.70;;;;;;;-145.69;100.00;70763.69;5072689;28;20624;-76
2022/09/08 02:59:08;;;;;;;3.25;0.77;;;;;;;-145.69;100.00;70763.69;5071816;28;20199;-77
2022/09/08 03:01:34;;;;;;;1.67;0.68;;;;;;;-145.69;100.00;70779.63;5071574;28;20206;-77
2022/09/08 03:04:01;;;;;;;0.52;0.52;;;;;;;-145.69;100.00;70777.63;5071501;28;20549;-76
2022/09/08 03:06:28;;;;;;;1.02;0.63;;;;;;;-145.69;100.00;70781.59;5072614;28;20234;-76
2022/09/08 03:08:55;;;;;;;1.70;1.00;;;;;;;-145.69;100.00;70779.63;5072404;28;20657;-76
2022/09/08 03:11:23;;;;;;;0.60;0.60;;;;;;;-145.69;100.00;70787.56;5072434;28;20260;-76
2022/09/08 03:13:49;;;;;;;1.85;0.70;;;;;;;-145.69;100.00;70801.50;5072086;28;20818;-75
2022/09/08 03:16:16;;;;;;;0.85;0.70;;;;;;;-145.69;100.00;70803.50;5072551;28;20203;-78
2022/09/08 03:18:42;;;;;;;1.10;0.60;;;;;;;-145.69;100.00;70809.47;5072512;28;20209;-76
2022/09/08 03:21:12;;;;;;;1.88;0.60;;;;;;;-145.69;100.00;70813.44;5072509;28;20596;-75
2022/09/08 03:23:39;;;;;;;0.50;0.50;;;;;;;-145.69;100.00;70817.41;5072431;28;20593;-77
2022/09/08 03:26:10;;;;;;;1.02;0.70;;;;;;;-145.69;100.00;70819.41;5072280;28;20207;-75
2022/09/08 03:28:38;;;;;;;1.48;0.70;;;;;;;-145.69;100.00;70825.38;5072754;28;20237;-77
2022/09/08 03:31:07;;;;;;;3.05;0.90;;;;;;;-145.69;100.00;70819.41;5072432;28;20289;-75
2022/09/08 03:33:33;;;;;;;2.80;0.90;;;;;;;-145.69;100.00;70821.41;5072080;28;20195;-75
2022/09/08 03:36:01;;;;;;;0.80;0.77;;;;;;;-145.69;100.00;70819.41;5072182;28;20210;-75
2022/09/08 03:38:27;;;;;;;1.48;0.93;;;;;;;-145.69;100.00;70821.41;5070305;28;20294;-75
2022/09/08 03:40:54;;;;;;;1.05;0.65;;;;;;;-145.69;100.00;70831.34;5071750;28;20195;-75
2022/09/08 03:43:20;;;;;;;1.23;0.80;;;;;;;-145.69;100.00;70823.38;5071992;28;20656;-74
2022/09/08 03:45:48;;;;;;;1.88;0.80;;;;;;;-145.69;100.00;70817.41;5072250;28;20198;-75
2022/09/08 03:48:15;;;;;;;0.80;0.60;;;;;;;-145.69;100.00;70821.41;5073544;28;20227;-76
2022/09/08 03:50:43;;;;;;;1.48;0.60;;;;;;;-145.69;100.00;70809.47;5075353;28;20515;-76
2022/09/08 03:53:09;;;;;;;0.60;0.57;;;;;;;-145.69;100.00;70811.44;5075629;28;20202;-76
2022/09/08 03:55:39;;;;;;;3.42;1.10;;;;;;;-145.69;100.00;70813.44;5075527;28;20695;-76
2022/09/08 03:58:05;;;;;;;0.90;0.65;;;;;;;-145.69;100.00;70809.47;5075750;28;20206;-75
2022/09/08 04:00:32;;;;;;;0.80;0.80;;;;;;;-145.69;100.00;70805.47;5075691;28;20206;-76
2022/09/08 04:02:59;;;;;;;4.13;0.70;;;;;;;-145.69;100.00;70813.44;5075566;28;20213;-75
2022/09/08 04:05:26;;;;;;;0.80;0.80;;;;;;;-145.69;100.00;70813.44;5075249;28;20205;-75
2022/09/08 04:07:53;;;;;;;0.60;0.60;;;;;;;-145.69;100.00;70799.50;5075214;28;20279;-75
2022/09/08 04:10:20;;;;;;;1.15;0.70;;;;;;;-145.69;100.00;70801.50;5072145;28;20195;-77
2022/09/08 04:12:47;;;;;;;1.38;0.80;;;;;;;-145.69;100.00;70809.47;5074597;28;20289;-76
2022/09/08 04:15:14;;;;;;;2.08;0.80;;;;;;;-145.69;100.00;70805.47;5074749;28;20665;-77
2022/09/08 04:17:40;;;;;;;0.80;0.80;;;;;;;-145.69;100.00;70801.50;5075068;28;20619;-77
2022/09/08 04:20:09;;;;;;;2.33;1.00;;;;;;;-145.69;100.00;70801.50;5074957;28;20607;-78
2022/09/08 04:22:36;;;;;;;0.95;0.80;;;;;;;-145.69;100.00;70803.50;5075141;28;20207;-75
2022/09/08 04:25:03;;;;;;;0.73;0.73;;;;;;;-145.69;100.00;70805.47;5074714;28;20202;-77
2022/09/08 04:27:29;;;;;;;1.27;0.90;;;;;;;-145.69;100.00;70807.47;5074673;28;20283;-77
2022/09/08 04:29:56;;;;;;;0.80;0.77;;;;;;;-145.69;100.00;70809.47;5074869;28;20591;-76
2022/09/08 04:32:22;;;;;;;1.02;0.70;;;;;;;-145.69;100.00;70809.47;5074860;28;20203;-77
2022/09/08 04:34:49;;;;;;;0.73;0.73;;;;;;;-145.69;100.00;70813.44;5074370;28;20207;-75
2022/09/08 04:37:18;;;;;;;1.08;0.70;;;;;;;-145.69;100.00;70817.41;5074867;28;20706;-78
2022/09/08 04:39:44;;;;;;;1.05;0.80;;;;;;;-145.69;100.00;70813.44;5074764;28;20726;-76
2022/09/08 04:42:11;;;;;;;0.85;0.65;;;;;;;-145.69;100.00;70817.41;5074913;28;20256;-77
2022/09/08 04:44:38;;;;;;;3.15;0.60;;;;;;;-145.69;100.00;70817.41;5074450;28;20293;-76
2022/09/08 04:47:04;;;;;;;0.80;0.80;;;;;;;-145.69;100.00;70819.41;5074652;28;20219;-76
2022/09/08 04:49:30;;;;;;;0.70;0.70;;;;;;;-145.69;100.00;70829.34;5074271;28;20231;-76
2022/09/08 04:51:57;;;;;;;1.08;0.90;;;;;;;-145.69;100.00;70833.34;5074210;28;20244;-76
2022/09/08 04:54:25;;;;;;;1.70;0.80;;;;;;;-145.69;100.00;70835.31;5073282;28;20256;-76
2022/09/08 04:56:51;;;;;;;1.17;0.70;;;;;;;-145.69;100.00;70829.34;5072726;28;20479;-76
2022/09/08 04:59:18;;;;;;;0.70;0.70;;;;;;;-145.69;100.00;70835.31;5073774;28;20230;-78
2022/09/08 05:01:45;;;;;;;0.82;0.82;;;;;;;-145.69;100.00;70833.34;5074017;28;20281;-78
2022/09/08 05:04:11;;;;;;;0.80;0.68;;;;;;;-145.69;100.00;70841.28;5074871;28;20202;-77
2022/09/08 05:06:37;;;;;;;1.10;0.80;;;;;;;-145.69;100.00;70839.31;5073563;28;20439;-77
2022/09/08 05:09:05;;;;;;;0.90;0.77;;;;;;;-145.69;100.00;70843.28;5074282;28;20226;-76
2022/09/08 05:11:34;;;;;;;2.42;0.90;;;;;;;-145.69;100.00;70839.31;5074212;28;20538;-75
2022/09/08 05:14:01;;;;;;;3.05;1.25;;;;;;;-145.69;100.00;70847.25;5074148;28;20281;-76
2022/09/08 05:16:29;;;;;;;1.05;1.00;;;;;;;-145.69;100.00;70843.28;5074054;28;20199;-77
2022/09/08 05:18:58;;;;;;;0.95;0.88;;;;;;;-145.69;100.00;70853.22;5074361;28;20203;-75
2022/09/08 05:21:25;;;;;;;2.67;0.77;;;;;;;-145.69;100.00;70855.22;5074162;28;20207;-76
2022/09/08 05:23:53;;;;;;;1.77;1.13;;;;;;;-145.69;100.00;70855.22;5073933;28;20604;-76
2022/09/08 05:26:21;;;;;;;1.35;0.90;;;;;;;-145.69;100.00;70853.22;5074174;28;20210;-75
2022/09/08 05:28:49;;;;;;;1.52;1.10;;;;;;;-145.69;100.00;70853.22;5073960;28;20233;-77
2022/09/08 05:31:18;;;;;;;3.05;0.90;;;;;;;-145.69;100.00;70853.22;5073014;28;20653;-75
2022/09/08 05:33:45;;;;;;;1.83;0.90;;;;;;;-145.69;100.00;70853.22;5053870;28;20286;-76
2022/09/08 05:36:14;;;;;;;2.60;1.00;;;;;;;-145.69;100.00;70857.22;5053814;28;20724;-76
2022/09/08 05:38:40;;;;;;;1.58;1.05;;;;;;;-145.69;100.00;70857.22;5053919;28;20237;-76
2022/09/08 05:41:09;;;;;;;1.60;0.90;;;;;;;-145.69;100.00;70853.22;5053720;28;20203;-77
2022/09/08 05:43:36;;;;;;;1.88;1.02;;;;;;;-145.69;100.00;70861.19;5053180;28;20443;-75
2022/09/08 05:46:04;;;;;;;1.45;0.90;;;;;;;-145.69;100.00;70861.19;5053791;28;20206;-76
2022/09/08 05:48:31;;;;;;;1.30;1.10;;;;;;;-145.69;100.00;70859.19;5053323;28;20234;-76
2022/09/08 05:50:58;;;;;;;2.97;1.17;;;;;;;-145.69;100.00;70867.16;5053388;28;20322;-76
2022/09/08 05:53:25;;;;;;;2.63;1.10;;;;;;;-145.69;100.00;70873.13;5053481;28;20229;-75
2022/09/08 05:56:00;;;;;;;3.90;1.10;;;;;;;-145.69;100.00;70869.16;5053485;28;20253;-74
2022/09/08 05:58:26;;;;;;;2.22;1.10;;;;;;;-145.69;100.00;70867.16;5052964;28;20199;-75
2022/09/08 06:00:57;;;;;;;1.13;0.93;;;;;;;-145.69;100.00;70873.13;5053571;28;20199;-75
2022/09/08 06:03:26;;;;;;;1.05;0.88;;;;;;;-145.69;100.00;70873.13;5070774;28;20324;-75
2022/09/08 06:05:53;;;;;;;1.08;0.80;;;;;;;-145.69;100.00;70873.13;5073699;28;20198;-77
2022/09/08 06:08:20;;;;;;;1.48;1.10;;;;;;;-145.69;100.00;70875.13;5073026;28;20227;-76
2022/09/08 06:10:49;;;;;;;1.30;1.08;;;;;;;-145.69;100.00;70879.09;5071092;28;20657;-77
2022/09/08 06:13:16;;;;;;;1.88;0.90;;;;;;;-145.69;100.00;70885.06;5053155;28;20607;-77
2022/09/08 06:15:42;;;;;;;1.50;0.82;;;;;;;-145.69;100.00;70891.03;5053237;28;20195;-76
2022/09/08 06:18:08;;;;;;;5.35;1.10;;;;;;;-145.69;100.00;70889.03;5053217;28;20654;-76
2022/09/08 06:20:37;;;;;;;1.23;1.02;;;;;;;-145.69;100.00;70885.06;5052312;28;20200;-76
2022/09/08 06:23:04;;;;;;;3.42;1.08;;;;;;;-145.69;100.00;70897.00;5052013;28;20245;-76
2022/09/08 06:25:30;;;;;;;1.55;0.80;;;;;;;-145.69;100.00;70899.00;5053174;28;20229;-78
2022/09/08 06:28:01;;;;;;;1.48;1.10;;;;;;;-145.69;100.00;70883.06;5053077;28;20223;-78
2022/09/08 06:30:28;;;;;;;0.95;0.88;;;;;;;-145.69;100.00;70885.06;5053043;28;20203;-77
2022/09/08 06:32:58;;;;;;;2.42;0.70;;;;;;;-145.69;100.00;70889.03;5068687;28;20199;-77
2022/09/08 06:35:29;;;;;;;5.38;1.00;;;;;;;-145.69;100.00;70893.03;5073147;28;20194;-77
2022/09/08 06:38:00;;;;;;;1.23;0.80;;;;;;;-145.69;100.00;70899.00;5073028;28;20272;-77
2022/09/08 06:40:29;;;;;;;1.63;0.90;;;;;;;-145.69;100.00;70904.97;5072980;28;20202;-76
2022/09/08 06:43:01;;;;;;;1.85;0.80;;;;;;;-145.69;100.00;70897.00;5072751;28;20653;-77
2022/09/08 06:45:31;;;;;;;1.90;1.00;;;;;;;-145.69;100.00;70895.00;5072812;28;20233;-77
2022/09/08 06:48:12;;;;;;;2.70;0.90;;;;;;;-145.69;100.00;70893.03;5072865;28;20256;-76
2022/09/08 06:50:56;;;;;;;2.15;0.98;;;;;;;-145.69;100.00;70885.06;5072520;28;20608;-77
2022/09/08 06:53:28;;;;;;;1.98;0.90;;;;;;;-145.69;100.00;70883.06;5072911;28;20198;-77
2022/09/08 06:56:02;;;;;;;2.65;0.93;;;;;;;-145.69;100.00;70885.06;5072914;28;20207;-77
2022/09/08 06:58:31;;;;;;;1.38;0.93;;;;;;;-145.69;100.00;70869.16;5072693;28;20623;-76
2022/09/08 07:01:03;;;;;;;1.73;1.00;;;;;;;-145.69;100.00;70859.19;5071391;28;20453;-76
2022/09/08 07:04:05;;;;;;;1.38;0.70;;;;;;;-145.69;100.00;70847.25;5072698;28;20727;-76
2022/09/08 07:06:36;;;;;;;1.48;0.80;;;;;;;-145.69;100.00;70833.34;5072606;28;20201;-76
2022/09/08 07:09:12;;;;;;;1.42;0.95;;;;;;;-145.69;100.00;70833.34;5072376;28;20225;-76
2022/09/08 07:11:51;;;;;;;3.15;1.33;;;;;;;-145.69;100.00;70809.47;5071423;28;20596;-76
2022/09/08 07:14:40;;;;;;;1.83;1.10;;;;;;;-145.69;100.00;70809.47;5071195;28;20199;-77
2022/09/08 07:17:13;;;;;;;1.10;0.90;;;;;;;-145.69;100.00;70825.38;5072451;28;20244;-76
2022/09/08 07:19:48;;;;;;;2.35;1.08;;;;;;;-145.69;100.00;70813.44;5072271;28;20203;-76
2022/09/08 07:22:21;;;;;;;2.30;0.93;;;;;;;-145.69;100.00;70829.34;5072601;28;20238;-76
2022/09/08 07:24:54;;;;;;;2.53;1.35;;;;;;;-145.69;100.00;70829.34;5076197;28;20206;-76
2022/09/08 07:27:20;;;;;;;4.07;0.80;;;;;;;-145.69;100.00;70825.38;5076386;28;20221;-76
2022/09/08 07:29:51;;;;;;;1.25;1.02;;;;;;;-145.69;100.00;70821.41;5075894;28;20230;-77
2022/09/08 07:32:22;;;;;;;1.13;0.90;;;;;;;-145.69;100.00;70817.41;5075790;28;20645;-77
2022/09/08 07:34:53;;;;;;;1.10;1.00;;;;;;;-145.69;100.00;70809.47;5075860;28;20283;-76
2022/09/08 07:37:26;;;;;;;1.55;1.05;;;;;;;-145.69;100.00;70781.59;5074404;28;20203;-76
2022/09/08 07:39:59;;;;;;;1.15;0.90;;;;;;;-145.69;100.00;70729.88;5075404;28;20278;-75
2022/09/08 07:42:26;;;;;;;2.15;0.73;;;;;;;-145.69;100.00;70694.06;5076060;28;20294;-76
2022/09/08 07:45:01;;;;;;;5.50;0.90;;;;;;;-145.69;100.00;70686.09;5075517;28;20202;-75
2022/09/08 07:47:42;;;;;;;1.95;0.90;;;;;;;-145.69;100.00;70658.25;5075620;28;20264;-77
2022/09/08 07:50:21;;;;;;;2.17;0.90;;;;;;;-145.69;100.00;70668.19;5075673;28;20234;-78
2022/09/08 07:52:54;;;;;;;3.42;1.00;;;;;;;-145.69;100.00;70656.25;5075734;28;20210;-76
2022/09/08 07:55:28;;;;;;;3.55;1.08;;;;;;;-145.69;100.00;70608.53;5075952;28;20203;-76
2022/09/08 07:58:06;;;;;;;1.25;0.75;;;;;;;-145.69;100.00;70604.53;5075754;28;20203;-76
2022/09/08 08:00:42;;;;;;;5.13;1.10;;;;;;;-145.69;100.00;70578.69;5075372;28;20205;-77
2022/09/08 08:03:25;;;;;;;3.92;1.13;;;;;;;-145.69;100.00;70530.94;5075088;28;20756;-76
2022/09/08 08:05:59;;;;;;;0.77;0.60;;;;;;;-145.69;100.00;70576.69;5075268;28;20545;-76
2022/09/08 08:08:38;;;;;;;3.22;1.10;;;;;;;-145.69;100.00;70574.69;5073467;28;20233;-76
2022/09/08 08:11:11;;;;;;;5.85;1.15;;;;;;;-145.69;100.00;70616.47;5055190;28;20294;-75
2022/09/08 08:14:03;;;;;;;1.05;0.70;;;;;;;-145.69;100.00;70624.44;5055272;28;20719;-75
2022/09/08 08:16:43;;;;;;;2.63;0.90;;;;;;;-145.69;100.00;70634.38;5054405;28;20440;-75
2022/09/08 08:19:24;;;;;;;3.25;1.13;;;;;;;-145.69;100.00;70624.44;5055022;28;20242;-77
2022/09/08 08:21:57;;;;;;;3.15;1.17;;;;;;;-145.69;100.00;70586.63;5055159;28;20261;-77
2022/09/08 08:24:35;;;;;;;3.58;0.90;;;;;;;-145.69;100.00;70610.50;5055353;28;20249;-77
2022/09/08 08:27:09;;;;;;;1.75;1.00;;;;;;;-145.69;100.00;70616.47;5055175;28;20245;-76
2022/09/08 08:29:53;;;;;;;1.85;0.88;;;;;;;-145.69;100.00;70594.59;5055090;28;20231;-76
2022/09/08 08:32:24;;;;;;;1.58;0.93;;;;;;;-145.69;100.00;70632.38;5054851;28;20204;-76
2022/09/08 08:34:57;;;;;;;2.75;1.65;;;;;;;-145.69;100.00;70604.53;5061031;28;20209;-75
2022/09/08 08:37:28;;;;;;;1.33;0.80;;;;;;;-145.69;100.00;70606.53;5075187;28;20194;-76
2022/09/08 08:39:55;;;;;;;1.38;0.85;;;;;;;-145.69;100.00;70610.50;5075007;28;20198;-75
2022/09/08 08:42:41;;;;;;;1.38;0.90;;;;;;;-145.69;100.00;70618.47;5074835;28;20203;-76
2022/09/08 08:45:22;;;;;;;4.90;0.90;;;;;;;-145.69;100.00;70612.50;5074958;28;20656;-76
2022/09/08 08:48:01;;;;;;;3.13;0.90;;;;;;;-145.69;100.00;70586.63;5074913;28;20202;-76
2022/09/08 08:50:51;;;;;;;4.25;0.90;;;;;;;-145.69;100.00;70562.75;5074555;28;20581;-76
2022/09/08 08:53:43;;;;;;;3.58;0.93;;;;;;;-145.69;100.00;70584.66;5072168;28;20808;-76
2022/09/08 08:56:17;;;;;;;2.05;1.00;;;;;;;-145.69;100.00;70608.53;5072627;28;20205;-77
2022/09/08 08:59:04;;;;;;;1.95;0.90;;;;;;;-145.69;100.00;70604.53;5072724;28;20213;-76
2022/09/08 09:01:45;;;;;;;3.40;0.90;;;;;;;-145.69;100.00;70642.34;5072390;28;20202;-77
2022/09/08 09:04:53;;;;;;;2.45;0.80;;;;;;;-145.69;100.00;70614.47;5072930;28;20199;-76
2022/09/08 09:07:36;;;;;;;2.83;1.02;;;;;;;-145.69;100.00;70570.72;5040038;28;20263;-77
2022/09/08 09:10:15;;;;;;;2.95;1.05;;;;;;;-145.69;100.00;70520.97;5074277;28;20233;-75
2022/09/08 09:12:56;;;;;;;5.60;0.93;;;;;;;-145.69;100.00;70522.97;5074201;28;20218;-76
2022/09/08 09:15:48;;;;;;;1.42;0.95;;;;;;;-145.69;100.00;70503.06;5074426;28;20198;-76
2022/09/08 09:18:35;;;;;;;3.17;0.90;;;;;;;-145.69;100.00;70509.03;5074031;28;20209;-76
2022/09/08 09:21:09;;;;;;;2.53;0.80;;;;;;;-145.69;100.00;70526.94;5070569;28;20198;-75
2022/09/08 09:23:44;;;;;;;3.42;0.95;;;;;;;-145.69;100.00;70493.13;5074097;28;20230;-76
2022/09/08 09:26:18;;;;;;;6.72;0.88;;;;;;;-145.69;100.00;70519.00;5073984;28;20201;-75
2022/09/08 09:29:19;;;;;;;3.05;0.73;;;;;;;-145.69;100.00;70507.06;5073538;28;20229;-76
2022/09/08 09:32:28;;;;;;;3.35;0.90;;;;;;;-145.69;100.00;70407.59;5053528;28;20198;-76
2022/09/08 09:35:37;;;;;;;0.95;0.70;;;;;;;-145.69;94.83;70399.63;5073729;28;20715;-75
2022/09/08 09:38:34;;;;;;;1.88;0.70;;;;;;;-145.69;95.58;70471.25;5073831;28;20589;-76
2022/09/08 09:41:21;;;;;;;3.47;0.90;;;;;;;-145.69;95.37;70507.06;5073386;28;20205;-76
2022/09/08 09:44:07;;;;;;;3.60;1.00;;;;;;;-145.69;99.70;70491.13;5073721;28;20206;-74
2022/09/08 09:47:03;;;;;;;1.77;0.70;;;;;;;-145.69;97.09;70542.88;5072950;28;20198;-74
2022/09/08 09:49:58;;;;;;;0.68;0.60;;;;;;;-145.69;95.08;70590.63;5073340;28;20261;-76
2022/09/08 09:52:35;;;;;;;4.07;0.90;;;;;;;-145.69;97.06;70596.59;5073852;28;20199;-75
2022/09/08 09:55:22;;;;;;;1.70;0.82;;;;;;;-145.69;100.00;70566.75;5073509;28;20277;-76
2022/09/08 09:58:24;;;;;;;3.08;0.70;;;;;;;-145.69;92.21;70540.88;5073375;28;20203;-75
2022/09/08 10:01:15;;;;;;;4.15;0.88;;;;;;;-145.69;94.86;70495.13;5073187;28;20202;-75
2022/09/08 10:04:07;;;;;;;1.65;0.70;;;;;;;-145.69;98.60;70459.31;5073561;28;20733;-75
2022/09/08 10:06:58;;;;;;;1.50;0.75;;;;;;;-145.69;89.52;70538.88;5073736;28;20206;-77
2022/09/08 10:09:46;;;;;;;1.45;0.70;;;;;;;-145.69;95.13;70542.88;5073350;28;20317;-76
2022/09/08 10:12:52;;;;;;;4.63;0.80;;;;;;;-145.69;92.29;70566.75;5063171;28;20207;-76
2022/09/08 10:15:41;;;;;;;3.75;0.93;;;;;;;-145.69;95.06;70558.78;5053300;28;20226;-76
2022/09/08 10:18:57;;;;;;;2.42;0.70;;;;;;;-145.69;94.75;70507.06;5053099;28;20202;-77
2022/09/08 10:22:11;;;;;;;2.78;0.70;;;;;;;-145.69;96.69;70499.09;5053252;28;20333;-77
2022/09/08 10:25:15;;;;;;;3.60;0.70;;;;;;;-145.69;88.18;70469.25;5053018;28;20685;-78
2022/09/08 10:28:11;;;;;;;2.75;0.70;;;;;;;-145.69;86.01;70528.94;5053065;28;20199;-76
2022/09/08 10:31:02;;;;;;;1.23;0.55;;;;;;;-145.69;88.46;70558.78;5069165;28;20226;-77
2022/09/08 10:33:43;;;;;;;2.70;0.70;;;;;;;-145.69;85.67;70560.78;5029235;28;20206;-76
2022/09/08 10:36:11;;;;;;;4.65;1.23;;;;;;;-145.69;84.36;70606.53;5073304;28;20557;-77
2022/09/08 10:39:07;;;;;;;2.05;0.88;;;;;;;-145.69;84.47;70612.50;5073132;28;20292;-75
2022/09/08 10:42:07;;;;;;;4.50;0.80;;;;;;;-145.69;85.70;70640.34;5072759;28;20664;-76
2022/09/08 10:44:51;;;;;;;1.42;0.70;;;;;;;-145.69;84.28;70650.28;5072554;28;20259;-76
2022/09/08 10:47:53;;;;;;;2.58;0.80;;;;;;;-145.69;86.46;70628.41;5073058;28;20588;-75
2022/09/08 10:50:21;;;;;;;2.33;0.82;;;;;;;-145.69;90.28;70606.53;5052641;28;20246;-76
2022/09/08 10:53:06;;;;;;;3.75;0.90;;;;;;;-145.69;85.75;70578.69;5052832;28;20207;-76
2022/09/08 10:55:54;;;;;;;2.53;0.88;;;;;;;-145.69;86.40;70507.06;5052668;28;20278;-78
2022/09/08 10:58:44;;;;;;;1.40;0.60;;;;;;;-145.69;75.53;70530.94;5054065;28;20200;-78
2022/09/08 11:01:36;;;;;;;2.58;0.65;;;;;;;-145.69;81.38;70528.94;5056948;28;20252;-76
2022/09/08 11:04:28;;;;;;;0.60;0.55;;;;;;;-145.69;80.76;70483.19;5056862;28;20719;-76
2022/09/08 11:07:08;;;;;;;3.45;0.77;;;;;;;-145.69;78.95;70451.34;5056757;28;20203;-75
2022/09/08 11:09:45;;;;;;;2.00;0.88;;;;;;;-145.69;70.93;70471.25;5056837;28;20227;-74
2022/09/08 11:12:38;;;;;;;1.35;0.70;;;;;;;-145.69;77.25;70461.31;5062156;28;20688;-75
2022/09/08 11:15:27;;;;;;;1.67;0.80;;;;;;;-145.69;78.92;70455.34;5076788;28;20206;-77
2022/09/08 11:18:03;;;;;;;1.83;0.52;;;;;;;-145.69;73.80;70411.56;5076310;28;20199;-77
2022/09/08 11:20:40;;;;;;;2.75;0.93;;;;;;;-145.69;71.84;70363.81;5076833;28;20202;-76
2022/09/08 11:23:24;;;;;;;1.17;0.75;;;;;;;-145.69;72.19;70337.97;5076303;28;20272;-76
2022/09/08 11:26:07;;;;;;;0.82;0.40;;;;;;;-145.69;69.28;70306.13;5076462;28;20202;-80
2022/09/08 11:28:51;;;;;;;1.75;0.43;;;;;;;-145.69;72.10;70413.56;5076099;28;20617;-76
2022/09/08 11:31:33;;;;;;;4.82;0.70;;;;;;;-145.69;75.03;70469.25;5076254;28;20379;-76
2022/09/08 11:34:24;;;;;;;2.15;0.65;;;;;;;-145.69;74.49;70467.28;5076180;28;20206;-76
2022/09/08 11:37:21;;;;;;;3.13;0.73;;;;;;;-145.69;77.19;70483.19;5076113;28;20206;-75
2022/09/08 11:40:02;;;;;;;1.55;0.70;;;;;;;-145.69;82.55;70475.22;5075902;28;20206;-77
2022/09/08 11:42:57;;;;;;;3.38;0.60;;;;;;;-145.69;75.90;70459.31;5075778;28;20218;-76
2022/09/08 11:45:36;;;;;;;5.63;0.77;;;;;;;-145.69;74.34;70503.06;5075980;28;20195;-75
2022/09/08 11:48:33;;;;;;;2.08;0.63;;;;;;;-145.69;76.32;70520.97;5075875;28;20210;-76